createdAt,value
2019-02-15T00:01:51.109Z,22.25
2019-02-15T00:04:26.072Z,25.35
2019-02-15T00:07:01.060Z,22.90
2019-02-15T00:09:36.007Z,24.27
2019-02-15T00:12:10.963Z,25.25
2019-02-15T00:14:48.544Z,26.62
2019-02-15T00:17:57.989Z,29.30
2019-02-15T00:20:36.670Z,31.25
2019-02-15T00:23:11.591Z,28.25
2019-02-15T00:28:19.820Z,27.30
2019-02-15T00:30:54.485Z,31.07
2019-02-15T00:33:29.206Z,27.85
2019-02-15T00:36:03.788Z,30.92
2019-02-15T00:38:38.499Z,34.15
2019-02-15T00:41:13.141Z,27.80
2019-02-15T00:43:47.835Z,31.33
2019-02-15T00:46:37.103Z,34.18
2019-02-15T00:49:17.997Z,30.43
2019-02-15T00:52:18.030Z,27.73
2019-02-15T00:55:10.885Z,29.90
2019-02-15T00:58:03.949Z,23.92
2019-02-15T01:00:58.540Z,32.33
2019-02-15T01:03:51.557Z,29.30
2019-02-15T01:08:13.049Z,23.67
2019-02-15T01:11:13.028Z,34.43
2019-02-15T01:13:47.658Z,27.58
2019-02-15T01:18:55.647Z,27.42
2019-02-15T01:24:03.732Z,29.18
2019-02-15T01:29:33.988Z,29.37
2019-02-15T01:32:46.687Z,32.63
2019-02-15T01:38:37.970Z,25.25
2019-02-15T01:41:32.452Z,27.67
2019-02-15T01:44:22.801Z,34.00
2019-02-15T01:47:01.876Z,32.55
2019-02-15T01:49:36.792Z,26.52
2019-02-15T01:52:12.655Z,29.25
2019-02-15T01:54:47.615Z,29.85
2019-02-15T01:57:22.667Z,29.10
2019-02-15T02:02:31.225Z,28.65
2019-02-15T02:05:06.573Z,34.40
2019-02-15T02:07:42.144Z,31.73
2019-02-15T02:10:17.439Z,26.42
2019-02-15T02:12:52.062Z,33.50
2019-02-15T02:15:26.964Z,30.75
2019-02-15T02:18:01.732Z,32.88
2019-02-15T02:21:47.054Z,29.65
2019-02-15T02:24:22.061Z,28.25
2019-02-15T02:26:56.938Z,29.27
2019-02-15T02:29:31.831Z,29.87
2019-02-15T02:32:06.808Z,31.57
2019-02-15T02:34:42.318Z,30.80
2019-02-15T02:37:17.169Z,29.18
2019-02-15T02:39:53.011Z,27.55
2019-02-15T02:42:29.856Z,29.32
2019-02-15T02:45:05.049Z,26.65
2019-02-15T02:47:41.553Z,28.25
2019-02-15T02:50:18.653Z,29.35
2019-02-15T02:55:27.579Z,29.65
2019-02-15T02:58:02.153Z,28.75
2019-02-15T03:00:37.323Z,27.13
2019-02-15T03:03:12.135Z,30.30
2019-02-15T03:05:46.915Z,28.52
2019-02-15T03:08:21.713Z,30.20
2019-02-15T03:10:56.549Z,31.23
2019-02-15T03:13:31.451Z,29.52
2019-02-15T03:16:06.691Z,32.53
2019-02-15T03:18:41.637Z,26.00
2019-02-15T03:22:43.043Z,25.85
2019-02-15T03:25:21.183Z,24.12
2019-02-15T03:27:56.053Z,27.93
2019-02-15T03:30:31.182Z,28.92
2019-02-15T03:33:07.534Z,24.27
2019-02-15T03:35:54.593Z,26.40
2019-02-15T03:44:00.814Z,30.50
2019-02-15T03:46:35.312Z,33.70
2019-02-15T03:49:09.642Z,33.05
2019-02-15T03:54:18.173Z,31.62
2019-02-15T03:56:52.675Z,33.85
2019-02-15T03:59:27.031Z,31.65
2019-02-15T04:02:01.542Z,31.05
2019-02-15T04:04:38.543Z,35.48
2019-02-15T04:07:12.784Z,32.40
2019-02-15T04:09:47.039Z,34.08
2019-02-15T04:12:21.691Z,33.60
2019-02-15T04:17:30.330Z,30.32
2019-02-15T04:20:06.648Z,36.95
2019-02-15T04:25:15.669Z,30.15
2019-02-15T04:27:50.342Z,30.37
2019-02-15T04:30:24.787Z,37.33
2019-02-15T04:32:59.608Z,29.65
2019-02-15T04:35:34.182Z,35.28
2019-02-15T04:38:09.054Z,30.48
2019-02-15T04:40:44.535Z,27.45
2019-02-15T04:43:19.320Z,28.85
2019-02-15T04:45:53.956Z,27.10
2019-02-15T04:48:29.638Z,32.10
2019-02-15T04:51:05.592Z,28.55
2019-02-15T04:56:14.785Z,34.85
2019-02-15T04:58:49.443Z,31.65
2019-02-15T05:01:24.354Z,36.80
2019-02-15T05:03:59.172Z,31.80
2019-02-15T05:06:33.940Z,28.77
2019-02-15T05:09:08.873Z,32.93
2019-02-15T05:11:43.661Z,31.82
2019-02-15T05:14:18.184Z,34.25
2019-02-15T05:16:53.337Z,33.30
2019-02-15T05:19:28.161Z,32.48
2019-02-15T05:22:02.976Z,32.88
2019-02-15T05:24:37.792Z,30.30
2019-02-15T05:27:12.568Z,36.77
2019-02-15T05:29:47.527Z,36.00
2019-02-15T05:32:25.315Z,34.45
2019-02-15T05:35:00.291Z,30.00
2019-02-15T05:37:35.776Z,29.95
2019-02-15T05:40:10.313Z,30.80
2019-02-15T05:42:45.044Z,34.95
2019-02-15T05:45:20.448Z,31.15
2019-02-15T05:47:55.050Z,30.27
2019-02-15T05:50:29.800Z,32.10
2019-02-15T05:53:04.648Z,31.17
2019-02-15T05:55:39.332Z,29.23
2019-02-15T05:58:14.456Z,27.70
2019-02-15T06:00:49.508Z,35.70
2019-02-15T06:05:58.070Z,27.85
2019-02-15T06:08:32.826Z,29.35
2019-02-15T06:11:08.370Z,33.67
2019-02-15T06:13:43.882Z,32.10
2019-02-15T06:16:20.097Z,35.25
2019-02-15T06:18:55.026Z,29.12
2019-02-15T06:21:29.998Z,36.65
2019-02-15T06:24:05.000Z,33.25
2019-02-15T06:26:39.568Z,30.62
2019-02-15T06:31:49.040Z,32.98
2019-02-15T06:34:24.120Z,33.20
2019-02-15T06:36:59.127Z,27.98
2019-02-15T06:39:33.873Z,31.80
2019-02-15T06:42:09.049Z,29.55
2019-02-15T06:44:44.833Z,29.42
2019-02-15T06:47:19.735Z,29.52
2019-02-15T06:52:28.671Z,30.48
2019-02-15T06:57:39.115Z,34.33
2019-02-15T07:00:30.509Z,31.37
2019-02-15T07:03:23.846Z,30.80
2019-02-15T07:05:58.919Z,33.78
2019-02-15T07:08:33.606Z,31.85
2019-02-15T07:16:19.527Z,28.75
2019-02-15T07:18:53.968Z,27.65
2019-02-15T07:21:28.941Z,31.77
2019-02-15T07:24:03.946Z,27.10
2019-02-15T07:26:38.548Z,28.25
2019-02-15T07:29:13.061Z,32.48
2019-02-15T07:31:47.627Z,37.35
2019-02-15T07:36:56.559Z,26.45
2019-02-15T07:39:31.504Z,28.12
2019-02-15T07:42:06.310Z,30.25
2019-02-15T07:44:41.179Z,28.60
2019-02-15T07:47:16.066Z,31.35
2019-02-15T07:49:50.929Z,27.32
2019-02-15T07:52:25.726Z,29.37
2019-02-15T08:00:13.107Z,24.67
2019-02-15T08:02:48.059Z,26.82
2019-02-15T08:05:23.605Z,34.10
2019-02-15T08:07:58.705Z,28.15
2019-02-15T08:10:33.528Z,35.03
2019-02-15T08:13:08.051Z,31.12
2019-02-15T08:15:51.302Z,26.85
2019-02-15T08:18:20.276Z,26.30
2019-02-15T08:20:55.310Z,24.27
2019-02-15T08:23:30.431Z,25.37
2019-02-15T08:26:05.325Z,23.15
2019-02-15T08:28:40.151Z,22.48
2019-02-15T08:31:16.866Z,23.45
2019-02-15T08:33:52.020Z,27.90
2019-02-15T08:36:27.042Z,29.37
2019-02-15T08:39:02.337Z,25.43
2019-02-15T08:41:38.568Z,22.75
2019-02-15T08:51:56.050Z,23.12
2019-02-15T08:54:31.129Z,20.92
2019-02-15T08:57:06.323Z,20.75
2019-02-15T08:59:42.657Z,20.60
2019-02-15T09:02:23.583Z,24.00
2019-02-15T09:07:36.299Z,19.93
2019-02-15T09:10:22.105Z,24.02
2019-02-15T09:12:57.437Z,19.37
2019-02-15T09:15:32.107Z,16.37
2019-02-15T09:18:06.699Z,19.40
2019-02-15T09:20:41.305Z,19.73
2019-02-15T09:23:16.470Z,20.25
2019-02-15T09:25:51.027Z,19.30
2019-02-15T09:28:31.677Z,23.27
2019-02-15T09:31:07.445Z,23.52
2019-02-15T09:33:43.516Z,20.35
2019-02-15T09:36:20.318Z,20.30
2019-02-15T09:39:00.375Z,17.05
2019-02-15T09:41:37.852Z,19.73
2019-02-15T09:44:14.834Z,22.37
2019-02-15T09:46:52.634Z,17.75
2019-02-15T09:52:01.883Z,19.75
2019-02-15T09:54:36.183Z,16.87
2019-02-15T09:57:18.988Z,16.42
2019-02-15T09:59:55.064Z,19.70
2019-02-15T10:02:30.083Z,17.77
2019-02-15T10:05:08.601Z,19.07
2019-02-15T10:10:18.798Z,17.37
2019-02-15T10:12:53.114Z,18.75
2019-02-15T10:15:28.909Z,16.02
2019-02-15T10:18:03.986Z,16.45
2019-02-15T10:20:39.130Z,20.08
2019-02-15T10:23:14.168Z,18.75
2019-02-15T10:25:48.784Z,15.85
2019-02-15T10:28:24.043Z,14.28
2019-02-15T10:30:59.567Z,18.20
2019-02-15T10:36:08.997Z,14.73
2019-02-15T10:38:44.774Z,19.25
2019-02-15T10:41:21.558Z,14.95
2019-02-15T10:46:37.778Z,16.27
2019-02-15T10:49:11.793Z,14.78
2019-02-15T10:51:46.431Z,14.03
2019-02-15T10:54:21.443Z,17.87
2019-02-15T10:56:56.979Z,13.90
2019-02-15T11:02:05.312Z,16.37
2019-02-15T11:04:41.144Z,17.98
2019-02-15T11:07:15.994Z,15.10
2019-02-15T11:09:51.610Z,19.23
2019-02-15T11:15:00.726Z,17.20
2019-02-15T11:17:35.332Z,16.32
2019-02-15T11:20:12.693Z,16.62
2019-02-15T11:22:47.584Z,15.32
2019-02-15T11:30:30.748Z,15.93
2019-02-15T11:33:05.308Z,17.87
2019-02-15T11:35:39.964Z,17.10
2019-02-15T11:38:15.678Z,21.30
2019-02-15T11:40:50.070Z,17.85
2019-02-15T11:43:24.954Z,16.80
2019-02-15T11:46:00.019Z,15.75
2019-02-15T11:48:34.301Z,16.60
2019-02-15T11:51:08.823Z,18.98
2019-02-15T11:53:43.503Z,17.98
2019-02-15T11:58:51.475Z,16.85
2019-02-15T12:01:26.027Z,14.20
2019-02-15T12:04:00.848Z,15.68
2019-02-15T12:06:37.315Z,20.35
2019-02-15T12:09:12.172Z,17.02
2019-02-15T12:11:46.825Z,17.05
2019-02-15T12:14:21.939Z,13.28
2019-02-15T12:17:05.271Z,18.10
2019-02-15T12:22:07.100Z,12.13
2019-02-15T12:24:41.856Z,12.40
2019-02-15T12:27:16.445Z,11.80
2019-02-15T12:29:51.327Z,11.93
2019-02-15T12:32:25.896Z,11.50
2019-02-15T12:35:00.454Z,11.90
2019-02-15T12:37:35.075Z,15.75
2019-02-15T12:40:09.853Z,13.05
2019-02-15T12:42:44.552Z,12.73
2019-02-15T12:45:19.343Z,11.83
2019-02-15T12:47:54.490Z,11.55
2019-02-15T12:50:29.294Z,10.82
2019-02-15T12:53:03.661Z,9.23
2019-02-15T12:55:38.050Z,6.90
2019-02-15T12:58:12.942Z,7.47
2019-02-15T13:00:47.509Z,10.78
2019-02-15T13:03:22.630Z,7.90
2019-02-15T13:08:35.093Z,7.40
2019-02-15T13:11:09.707Z,8.43
2019-02-15T13:16:18.839Z,9.05
2019-02-15T13:18:53.637Z,9.35
2019-02-15T13:24:01.950Z,8.68
2019-02-15T13:26:36.715Z,7.25
2019-02-15T13:29:11.614Z,7.78
2019-02-15T13:34:20.585Z,9.00
2019-02-15T13:36:55.134Z,8.23
2019-02-15T13:39:29.823Z,5.72
2019-02-15T13:42:04.644Z,7.25
2019-02-15T13:47:13.069Z,5.85
2019-02-15T13:49:47.605Z,3.87
2019-02-15T13:54:55.740Z,5.22
2019-02-15T13:57:30.047Z,3.30
2019-02-15T14:00:05.068Z,4.87
2019-02-15T14:02:40.994Z,3.15
2019-02-15T14:05:15.593Z,6.00
2019-02-15T14:07:49.963Z,3.67
2019-02-15T14:10:24.820Z,5.45
2019-02-15T14:13:45.102Z,2.57
2019-02-15T14:16:55.403Z,4.33
2019-02-15T14:20:42.743Z,2.90
2019-02-15T14:23:47.067Z,2.80
2019-02-15T14:26:25.313Z,2.80
2019-02-15T14:28:59.627Z,4.95
2019-02-15T14:34:07.774Z,5.75
2019-02-15T14:36:42.147Z,4.67
2019-02-15T14:39:16.707Z,2.58
2019-02-15T14:44:25.307Z,2.95
2019-02-15T14:47:00.069Z,4.37
2019-02-15T14:49:34.770Z,2.80
2019-02-15T14:52:09.876Z,2.90
2019-02-15T14:54:44.994Z,4.65
2019-02-15T14:57:20.008Z,2.85
2019-02-15T14:59:54.935Z,3.17
2019-02-15T15:02:29.881Z,4.30
2019-02-15T15:05:06.519Z,7.12
2019-02-15T15:07:41.326Z,5.85
2019-02-15T15:10:16.072Z,6.33
2019-02-15T15:12:50.953Z,3.08
2019-02-15T15:15:25.639Z,3.47
2019-02-15T15:20:37.316Z,4.85
2019-02-15T15:23:12.632Z,4.55
2019-02-15T15:28:21.674Z,3.58
2019-02-15T15:33:48.534Z,5.37
2019-02-15T15:36:23.327Z,5.90
2019-02-15T15:38:58.143Z,3.92
2019-02-15T15:41:32.997Z,6.15
2019-02-15T15:44:08.062Z,5.33
2019-02-15T15:46:43.331Z,9.93
2019-02-15T15:49:18.527Z,4.72
2019-02-15T15:51:53.318Z,5.58
2019-02-15T15:54:28.188Z,5.47
2019-02-15T15:57:02.958Z,6.92
2019-02-15T15:59:37.670Z,4.25
2019-02-15T16:04:46.066Z,8.65
2019-02-15T16:07:21.052Z,5.72
2019-02-15T16:09:56.166Z,7.15
2019-02-15T16:12:31.025Z,4.90
2019-02-15T16:15:07.029Z,5.70
2019-02-15T16:17:42.821Z,7.15
2019-02-15T16:20:17.944Z,6.78
2019-02-15T16:22:52.630Z,10.98
2019-02-15T16:28:01.990Z,14.07
2019-02-15T16:31:07.035Z,10.58
2019-02-15T16:33:41.854Z,13.03
2019-02-15T16:36:16.687Z,10.60
2019-02-15T16:38:51.592Z,10.65
2019-02-15T16:44:01.035Z,10.00
2019-02-15T16:47:01.187Z,8.60
2019-02-15T16:51:06.690Z,9.85
2019-02-15T16:53:43.067Z,8.05
2019-02-15T16:56:18.340Z,10.82
2019-02-15T16:58:53.790Z,7.67
2019-02-15T17:01:28.655Z,7.60
2019-02-15T17:06:38.164Z,7.65
2019-02-15T17:09:17.019Z,8.85
2019-02-15T17:11:52.174Z,9.70
2019-02-15T17:14:27.522Z,8.60
2019-02-15T17:17:02.544Z,9.25
2019-02-15T17:24:49.096Z,9.03
2019-02-15T17:27:24.637Z,8.23
2019-02-15T17:29:59.454Z,10.10
2019-02-15T17:32:35.723Z,10.70
2019-02-15T17:35:11.337Z,9.63
2019-02-15T17:37:46.306Z,9.90
2019-02-15T17:40:21.512Z,17.02
2019-02-15T17:42:58.399Z,16.25
2019-02-15T17:45:33.320Z,18.57
2019-02-15T17:48:09.102Z,16.23
2019-02-15T17:50:44.506Z,19.27
2019-02-15T17:53:19.368Z,15.78
2019-02-15T17:55:54.334Z,15.13
2019-02-15T17:58:29.081Z,16.10
2019-02-15T18:01:04.323Z,15.53
2019-02-15T18:03:39.486Z,14.93
2019-02-15T18:06:14.500Z,16.97
2019-02-15T18:11:23.493Z,22.67
2019-02-15T18:13:58.229Z,16.65
2019-02-15T18:16:33.110Z,19.75
2019-02-15T18:19:10.081Z,15.93
2019-02-15T18:21:45.312Z,20.05
2019-02-15T18:24:20.149Z,15.30
2019-02-15T18:26:55.541Z,15.78
2019-02-15T18:29:30.332Z,17.50
2019-02-15T18:32:05.314Z,18.25
2019-02-15T18:34:40.469Z,17.65
2019-02-15T18:37:15.112Z,14.70
2019-02-15T18:39:50.112Z,20.30
2019-02-15T18:42:25.100Z,17.32
2019-02-15T18:45:13.020Z,18.32
2019-02-15T18:47:48.203Z,14.23
2019-02-15T18:50:23.423Z,14.85
2019-02-15T18:52:58.326Z,17.10
2019-02-15T18:55:33.300Z,13.98
2019-02-15T18:58:08.317Z,16.35
2019-02-15T19:00:43.678Z,14.50
2019-02-15T19:03:19.561Z,17.25
2019-02-15T19:08:29.168Z,15.60
2019-02-15T19:11:03.715Z,16.07
2019-02-15T19:13:39.341Z,14.70
2019-02-15T19:16:13.899Z,14.40
2019-02-15T19:18:49.554Z,16.95
2019-02-15T19:23:57.864Z,13.50
2019-02-15T19:26:32.325Z,15.00
2019-02-15T19:29:06.823Z,14.43
2019-02-15T19:31:41.558Z,12.85
2019-02-15T19:39:24.098Z,15.95
2019-02-15T19:41:59.013Z,13.58
2019-02-15T19:44:33.849Z,13.25
2019-02-15T19:47:08.910Z,12.65
2019-02-15T19:49:43.559Z,13.35
2019-02-15T19:54:52.471Z,15.45
2019-02-15T19:57:27.523Z,15.95
2019-02-15T20:02:36.529Z,20.02
2019-02-15T20:05:11.060Z,13.70
2019-02-15T20:07:46.039Z,19.45
2019-02-15T20:10:21.807Z,15.08
2019-02-15T20:12:56.304Z,19.77
2019-02-15T20:15:31.050Z,17.62
2019-02-15T20:18:05.671Z,17.45
2019-02-15T20:20:40.174Z,16.90
2019-02-15T20:23:14.867Z,19.25
2019-02-15T20:25:49.592Z,18.23
2019-02-15T20:31:00.969Z,20.03
2019-02-15T20:33:38.700Z,17.30
2019-02-15T20:36:33.146Z,18.87
2019-02-15T20:39:07.840Z,18.05
2019-02-15T20:41:43.861Z,14.85
2019-02-15T20:44:19.907Z,15.78
2019-02-15T20:46:54.705Z,15.55
2019-02-15T20:49:29.512Z,16.65
2019-02-15T20:52:04.096Z,16.50
2019-02-15T20:54:38.737Z,14.83
2019-02-15T20:57:13.314Z,14.50
2019-02-15T20:59:48.864Z,14.20
2019-02-15T21:02:23.960Z,17.73
2019-02-15T21:04:58.825Z,14.53
2019-02-15T21:07:34.168Z,13.80
2019-02-15T21:10:10.713Z,13.13
2019-02-15T21:12:45.516Z,15.83
2019-02-15T21:15:20.831Z,15.00
2019-02-15T21:17:55.557Z,14.68
2019-02-15T21:20:30.146Z,11.97
2019-02-15T21:23:04.633Z,13.32
2019-02-15T21:28:13.321Z,13.98
2019-02-15T21:30:48.532Z,17.17
2019-02-15T21:33:23.333Z,16.27
2019-02-15T21:35:57.658Z,17.20
2019-02-15T21:38:32.327Z,14.98
2019-02-15T21:41:07.041Z,17.07
2019-02-15T21:43:42.137Z,19.30
2019-02-15T21:46:18.101Z,20.15
2019-02-15T21:48:52.659Z,18.82
2019-02-15T21:51:27.175Z,19.00
2019-02-15T21:54:01.808Z,21.50
2019-02-15T21:56:36.698Z,23.05
2019-02-15T21:59:11.113Z,19.00
2019-02-15T22:01:46.673Z,18.65
2019-02-15T22:04:21.051Z,19.57
2019-02-15T22:06:56.465Z,21.33
2019-02-15T22:09:31.147Z,20.90
2019-02-15T22:12:06.069Z,19.37
2019-02-15T22:14:41.124Z,20.10
2019-02-15T22:17:15.975Z,21.97
2019-02-15T22:19:50.617Z,19.65
2019-02-15T22:22:27.329Z,17.62
2019-02-15T22:25:01.985Z,19.02
2019-02-15T22:27:40.829Z,17.10
2019-02-15T22:30:16.309Z,17.10
2019-02-15T22:32:50.844Z,18.55
2019-02-15T22:35:25.644Z,16.15
2019-02-15T22:40:37.802Z,20.20
2019-02-15T22:43:24.321Z,16.85
2019-02-15T22:45:58.983Z,17.42
2019-02-15T22:48:33.958Z,19.37
2019-02-15T22:51:08.666Z,19.92
2019-02-15T22:53:43.017Z,16.23
2019-02-15T22:56:17.603Z,27.87
2019-02-15T23:01:26.546Z,19.87
2019-02-15T23:04:01.552Z,19.95
2019-02-15T23:06:36.643Z,17.70
2019-02-15T23:11:56.994Z,20.57
2019-02-15T23:14:31.580Z,18.82
2019-02-15T23:19:40.027Z,16.80
2019-02-15T23:22:14.921Z,19.42
2019-02-15T23:24:49.519Z,18.15
2019-02-15T23:27:24.565Z,18.25
2019-02-15T23:32:33.151Z,19.92
2019-02-15T23:35:07.838Z,18.23
2019-02-15T23:37:42.567Z,19.98
2019-02-15T23:40:17.046Z,19.60
2019-02-15T23:42:52.085Z,19.52
2019-02-15T23:45:27.339Z,19.60
2019-02-15T23:48:02.555Z,19.77
2019-02-15T23:50:38.664Z,17.35
2019-02-15T23:53:13.735Z,18.90
2019-02-15T23:55:48.632Z,18.77
2019-02-15T23:58:22.999Z,20.37
